Weather at Abilene Regional Airport

Public forecast

Using degrees Fahrenheit for public forecast. Weather courtesy of forecast.io.

Current aviation weather report (METAR) for Abilene Regional Airport

Retrieved 2020/11/30 08:52 UTC (53 minutes ago):

KABI 300852Z 36015KT 10SM CLR 02/M08 A3049 RMK AO2 SLP327 T00221078 53011

Aviation forecast (TAF) for Abilene Regional Airport

Retrieved 2020/11/30 06:22 UTC (3 hours ago):

TAF KABI 300520Z 3006/0106 35007KT P6SM SKC